Pagrindinis puslapis
METAR-TAF:

METAR-TAF

Oro uostai :

Takamatsu, Japonija

platuma: 34-13N, ilguma: 134-01E, Aukštis: 185 m

Dabartinis oras

Ataskaita buvo paskelbta 43 minutes, ne 02:12 UTC
Vėjas 17 kt iš Vakarų su gūsio iki 29 kt
Temperatūra 11°C
Drėgmė 43%
Slėgis 1018 hPa
Matomumas 10 km arba daugiau
Mažai debesys ne aukštis 2500 ft
Su prošvaistėmis ne aukštis 4500 ft

METAR: RJOT 200212Z 26017G29KT 9999 FEW025 BKN045 11/M01 Q1018 RMK 1CU025 5CU045 A3007

Laikas: 11:55 (02:55 UTC)

Prognozė

Ataskaita buvo paskelbta 3 valandos ir 50 minutes, ne 23:05 UTC
Prognozė galioja nuo 20 metu 00 UTC su 21 metu 06 UTC
Vėjas 15 kt iš Vakarų
Matomumas 10 km arba daugiau
Mažai debesys ne aukštis 3000 ft
Išsisklaidę debesys ne aukštis 5000 ft
Laikinai
nuo 20 metu 02 UTC su 20 metu 06 UTC
Vėjas 16 kt iš Vakarų su gūsio iki 26 kt

TAF: RJOT 192305Z 2000/2106 26015KT 9999 FEW030 SCT050 TEMPO 2002/2006 26016G26KT

Orai ataskaitas ir orų prognozės (METAR, TAF).

turimą stotys yra geltonos ir raudonos taškus žemėlapyje.

Perkelti pele per norėdami pamatyti stoties vardą.

Tada spustelėkite, norėdami matyti oro stebėjimo ir prognozės.

Norėdami pakeisti žemėlapį: spustelėkite ant žalios mygtukų su juodo kryžiaus žemyn,; žalią mygtuką su brūkšneliu, jei norite nutolinti; arba žalių rodyklių gretimoms žemėlapius.


METAR-TAF: